N98 weather

Boyne City Municipal Airport
Boyne City, Michigan, United States

Public forecast

Using degrees Fahrenheit for public forecast. Weather courtesy of forecast.io.

Closest aviation weather report (METAR) to Boyne City Municipal Airport

Closest report is Charlevoix Municipal Airport, 13.3 nm (24.7 km) WNW. Retrieved 2019/10/21 01:35 UTC (6 minutes ago):

KCVX 210135Z AUTO 00000KT 10SM CLR 07/06 A3002 RMK AO2 T00710061

Closest aviation forecast (TAF) to Boyne City Municipal Airport

Closest forecast is Pellston Regional Airport of Emmet County Airport, 23.3 nm (43.1 km) NNE. Retrieved 2019-10-21 00:30 UTC (1 hour ago):

TAF KPLN 202325Z 2100/2124 00000KT P6SM FEW250 FM211100 11009KT 2SM BR BKN013 WS010/14030KT FM211400 11010G22KT P6SM OVC014 WS010/14030KT FM211600 11012G27KT P6SM OVC030 FM211900 11015G32KT 6SM -SHRA OVC035 FM212000 12016G34KT 6SM -SHRA OVC026 WS020/13045KT